Private Wetterstation Sandau
Wetterdaten: Freitag, 03.08.2012
Datum Zeit Temp. A. Feuchte A. Luftdruck Regen Wind Richtung Richtung Taupunkt Windchill
03.08.2012 00:01 19,9 C 70 % 1014,8 hPa 0,0 l/m 0,0 km/h (0 Bft) NW 315 14,3 C 19,9 C
03.08.2012 00:06 19,8 C 71 % 1014,9 hPa 0,0 l/m 0,0 km/h (0 Bft) NW 315 14,4 C 19,8 C
03.08.2012 00:11 19,6 C 72 % 1014,9 hPa 0,0 l/m 1,1 km/h (1 Bft) NW 315 14,4 C 19,6 C
03.08.2012 00:16 19,5 C 72 % 1014,9 hPa 0,0 l/m 0,0 km/h (0 Bft) NW 315 14,3 C 19,5 C
03.08.2012 00:21 19,4 C 72 % 1014,9 hPa 0,0 l/m 0,0 km/h (0 Bft) NW 315 14,2 C 19,4 C
03.08.2012 00:26 19,3 C 72 % 1015,0 hPa 0,0 l/m 1,8 km/h (1 Bft) NW 315 14,1 C 19,3 C
03.08.2012 00:31 19,3 C 73 % 1015,1 hPa 0,0 l/m 1,8 km/h (1 Bft) N-NW 337 14,3 C 19,3 C
03.08.2012 00:36 19,2 C 73 % 1015,1 hPa 0,0 l/m 0,0 km/h (0 Bft) N-NW 337 14,2 C 19,2 C
03.08.2012 00:41 19,1 C 74 % 1014,9 hPa 0,0 l/m 0,0 km/h (0 Bft) NW 315 14,4 C 19,1 C
03.08.2012 00:46 19,0 C 74 % 1015,0 hPa 0,0 l/m 0,0 km/h (0 Bft) NW 315 14,3 C 19,0 C
03.08.2012 00:51 18,9 C 75 % 1015,1 hPa 0,0 l/m 1,8 km/h (1 Bft) NW 315 14,4 C 18,9 C
03.08.2012 00:56 18,9 C 75 % 1015,1 hPa 0,0 l/m 0,0 km/h (0 Bft) NW 315 14,4 C 18,9 C
03.08.2012 01:01 18,9 C 77 % 1015,0 hPa 0,0 l/m 0,0 km/h (0 Bft) N 360 14,8 C 18,9 C
03.08.2012 01:06 18,9 C 77 % 1015,0 hPa 0,0 l/m 0,0 km/h (0 Bft) N 360 14,8 C 18,9 C
03.08.2012 01:11 18,8 C 77 % 1015,0 hPa 0,0 l/m 2,2 km/h (1 Bft) N-NW 337 14,7 C 18,8 C
03.08.2012 01:16 18,7 C 77 % 1015,2 hPa 0,0 l/m 0,0 km/h (0 Bft) N-NW 337 14,6 C 18,7 C
03.08.2012 01:21 18,8 C 77 % 1015,1 hPa 0,0 l/m 2,2 km/h (1 Bft) W-NW 292 14,7 C 18,8 C
03.08.2012 01:26 18,8 C 77 % 1015,1 hPa 0,0 l/m 0,0 km/h (0 Bft) N-NW 337 14,7 C 18,8 C
03.08.2012 01:31 18,9 C 78 % 1015,1 hPa 0,0 l/m 0,0 km/h (0 Bft) N-NW 337 15,0 C 18,9 C
03.08.2012 01:36 18,9 C 78 % 1015,1 hPa 0,0 l/m 0,0 km/h (0 Bft) NW 315 15,0 C 18,9 C
03.08.2012 01:41 18,9 C 78 % 1015,1 hPa 0,0 l/m 0,0 km/h (0 Bft) N-NW 337 15,0 C 18,9 C
03.08.2012 01:46 18,9 C 78 % 1015,1 hPa 0,0 l/m 1,4 km/h (1 Bft) N-NW 337 15,0 C 18,9 C
03.08.2012 01:51 18,9 C 78 % 1015,2 hPa 0,0 l/m 0,0 km/h (0 Bft) N 360 15,0 C 18,9 C
03.08.2012 01:56 18,8 C 78 % 1015,4 hPa 0,0 l/m 0,0 km/h (0 Bft) N 360 14,9 C 18,8 C
03.08.2012 02:01 18,8 C 78 % 1015,6 hPa 0,0 l/m 0,0 km/h (0 Bft) N-NW 337 14,9 C 18,8 C
03.08.2012 02:06 18,8 C 78 % 1015,7 hPa 0,0 l/m 0,0 km/h (0 Bft) N-NW 337 14,9 C 18,8 C
03.08.2012 02:11 18,7 C 78 % 1015,7 hPa 0,0 l/m 0,0 km/h (0 Bft) N-NW 337 14,8 C 18,7 C
03.08.2012 02:16 18,6 C 78 % 1015,7 hPa 0,0 l/m 3,2 km/h (1 Bft) N-NW 337 14,7 C 18,6 C
03.08.2012 02:21 18,6 C 79 % 1015,7 hPa 0,0 l/m 3,2 km/h (1 Bft) NW 315 14,9 C 18,6 C
03.08.2012 02:26 18,6 C 79 % 1015,7 hPa 0,0 l/m 2,5 km/h (1 Bft) NW 315 14,9 C 18,6 C
03.08.2012 02:31 18,5 C 79 % 1015,8 hPa 0,0 l/m 2,5 km/h (1 Bft) NW 315 14,8 C 18,5 C
03.08.2012 02:36 18,4 C 79 % 1015,8 hPa 0,0 l/m 1,1 km/h (1 Bft) N-NW 337 14,7 C 18,4 C
03.08.2012 02:41 18,4 C 80 % 1015,9 hPa 0,0 l/m 0,0 km/h (0 Bft) NW 315 14,9 C 18,4 C
03.08.2012 02:46 18,4 C 80 % 1015,8 hPa 0,0 l/m 0,0 km/h (0 Bft) NW 315 14,9 C 18,4 C
03.08.2012 02:51 18,3 C 80 % 1015,8 hPa 0,0 l/m 0,0 km/h (0 Bft) NW 315 14,8 C 18,3 C
03.08.2012 02:56 18,3 C 81 % 1015,7 hPa 0,0 l/m 0,0 km/h (0 Bft) N-NW 337 15,0 C 18,3 C
03.08.2012 03:01 18,3 C 81 % 1015,7 hPa 0,0 l/m 0,0 km/h (0 Bft) N-NO 22 15,0 C 18,3 C
03.08.2012 03:06 18,2 C 81 % 1015,7 hPa 0,0 l/m 0,0 km/h (0 Bft) N-NW 337 14,9 C 18,2 C
03.08.2012 03:11 18,1 C 81 % 1015,7 hPa 0,0 l/m 1,4 km/h (1 Bft) N-NW 337 14,8 C 18,1 C
03.08.2012 03:16 18,1 C 82 % 1015,8 hPa 0,0 l/m 0,0 km/h (0 Bft) N-NW 337 15,0 C 18,1 C
03.08.2012 03:21 18,1 C 82 % 1015,9 hPa 0,0 l/m 0,0 km/h (0 Bft) N-NW 337 15,0 C 18,1 C
03.08.2012 03:26 18,1 C 82 % 1015,8 hPa 0,0 l/m 3,2 km/h (1 Bft) NW 315 15,0 C 18,1 C
03.08.2012 03:31 18,2 C 83 % 1015,9 hPa 0,0 l/m 1,4 km/h (1 Bft) W 270 15,3 C 18,2 C
03.08.2012 03:36 18,2 C 83 % 1015,9 hPa 0,0 l/m 2,2 km/h (1 Bft) W 270 15,3 C 18,2 C
03.08.2012 03:41 18,2 C 83 % 1016,1 hPa 0,0 l/m 3,2 km/h (1 Bft) W 270 15,3 C 18,2 C
03.08.2012 03:46 18,3 C 83 % 1015,8 hPa 0,0 l/m 0,0 km/h (0 Bft) W 270 15,4 C 18,3 C
03.08.2012 03:51 18,3 C 83 % 1015,8 hPa 0,0 l/m 0,0 km/h (0 Bft) W 270 15,4 C 18,3 C
03.08.2012 03:56 18,3 C 83 % 1015,9 hPa 0,0 l/m 0,0 km/h (0 Bft) W 270 15,4 C 18,3 C
03.08.2012 04:01 18,3 C 83 % 1016,0 hPa 0,0 l/m 0,0 km/h (0 Bft) W 270 15,4 C 18,3 C
03.08.2012 04:06 18,3 C 83 % 1015,9 hPa 0,0 l/m 0,0 km/h (0 Bft) W 270 15,4 C 18,3 C
03.08.2012 04:11 18,2 C 83 % 1015,9 hPa 0,0 l/m 0,0 km/h (0 Bft) W 270 15,3 C 18,2 C
03.08.2012 04:16 18,2 C 83 % 1015,9 hPa 0,0 l/m 0,0 km/h (0 Bft) W 270 15,3 C 18,2 C
03.08.2012 04:21 18,2 C 83 % 1016,0 hPa 0,0 l/m 0,0 km/h (0 Bft) W 270 15,3 C 18,2 C
03.08.2012 04:26 18,2 C 83 % 1015,9 hPa 0,0 l/m 2,5 km/h (1 Bft) W 270 15,3 C 18,2 C
03.08.2012 04:31 18,2 C 83 % 1015,8 hPa 0,0 l/m 0,0 km/h (0 Bft) W 270 15,3 C 18,2 C
03.08.2012 04:36 18,2 C 83 % 1015,8 hPa 0,0 l/m 0,0 km/h (0 Bft) W 270 15,3 C 18,2 C
03.08.2012 04:41 18,1 C 83 % 1015,7 hPa 0,0 l/m 0,0 km/h (0 Bft) W-NW 292 15,2 C 18,1 C
03.08.2012 04:46 18,1 C 83 % 1015,7 hPa 0,0 l/m 0,0 km/h (0 Bft) W-NW 292 15,2 C 18,1 C
03.08.2012 04:51 18,1 C 83 % 1015,7 hPa 0,0 l/m 1,4 km/h (1 Bft) W-NW 292 15,2 C 18,1 C
03.08.2012 04:56 18,0 C 83 % 1015,6 hPa 0,0 l/m 1,4 km/h (1 Bft) W-NW 292 15,1 C 18,0 C
03.08.2012 05:01 17,9 C 84 % 1015,7 hPa 0,0 l/m 0,0 km/h (0 Bft) W-NW 292 15,2 C 17,9 C
03.08.2012 05:06 17,9 C 84 % 1015,9 hPa 0,0 l/m 0,0 km/h (0 Bft) W-NW 292 15,2 C 17,9 C
03.08.2012 05:11 17,9 C 83 % 1016,0 hPa 0,0 l/m 0,0 km/h (0 Bft) W-NW 292 15,0 C 17,9 C
03.08.2012 05:16 17,8 C 84 % 1016,2 hPa 0,0 l/m 0,0 km/h (0 Bft) W-NW 292 15,1 C 17,8 C
03.08.2012 05:21 17,8 C 84 % 1016,1 hPa 0,0 l/m 1,8 km/h (1 Bft) W-NW 292 15,1 C 17,8 C
03.08.2012 05:26 17,8 C 84 % 1016,1 hPa 0,0 l/m 0,0 km/h (0 Bft) W-NW 292 15,1 C 17,8 C
03.08.2012 05:31 17,8 C 85 % 1015,9 hPa 0,0 l/m 0,0 km/h (0 Bft) W-NW 292 15,2 C 17,8 C
03.08.2012 05:36 17,8 C 85 % 1016,0 hPa 0,0 l/m 0,0 km/h (0 Bft) W-NW 292 15,2 C 17,8 C
03.08.2012 05:41 17,6 C 85 % 1016,2 hPa 0,0 l/m 0,0 km/h (0 Bft) W-NW 292 15,0 C 17,6 C
03.08.2012 05:46 17,6 C 85 % 1016,2 hPa 0,0 l/m 0,0 km/h (0 Bft) W-NW 292 15,0 C 17,6 C
03.08.2012 05:51 17,6 C 85 % 1016,2 hPa 0,0 l/m 2,9 km/h (1 Bft) W 270 15,0 C 17,6 C
03.08.2012 05:56 17,6 C 85 % 1016,1 hPa 0,0 l/m 2,9 km/h (1 Bft) W 270 15,0 C 17,6 C
03.08.2012 06:01 17,6 C 85 % 1016,1 hPa 0,0 l/m 1,8 km/h (1 Bft) W-NW 292 15,0 C 17,6 C
03.08.2012 06:06 17,7 C 85 % 1016,0 hPa 0,0 l/m 0,0 km/h (0 Bft) W-NW 292 15,1 C 17,7 C
03.08.2012 06:11 17,7 C 86 % 1016,0 hPa 0,0 l/m 4,0 km/h (1 Bft) W-NW 292 15,3 C 17,7 C
03.08.2012 06:16 17,6 C 86 % 1015,9 hPa 0,0 l/m 2,9 km/h (1 Bft) W-NW 292 15,2 C 17,6 C
03.08.2012 06:21 17,6 C 86 % 1016,0 hPa 0,0 l/m 0,0 km/h (0 Bft) W-NW 292 15,2 C 17,6 C
03.08.2012 06:26 17,6 C 86 % 1015,9 hPa 0,0 l/m 0,0 km/h (0 Bft) W 270 15,2 C 17,6 C
03.08.2012 06:31 17,6 C 86 % 1015,8 hPa 0,0 l/m 3,6 km/h (1 Bft) W-NW 292 15,2 C 17,6 C
03.08.2012 06:36 17,6 C 86 % 1015,6 hPa 0,0 l/m 1,8 km/h (1 Bft) W-NW 292 15,2 C 17,6 C
03.08.2012 06:41 17,6 C 86 % 1015,5 hPa 0,0 l/m 2,5 km/h (1 Bft) N-NO 22 15,2 C 17,6 C
03.08.2012 06:46 17,6 C 86 % 1015,6 hPa 0,0 l/m 1,4 km/h (1 Bft) N-NO 22 15,2 C 17,6 C
03.08.2012 06:51 17,6 C 86 % 1015,6 hPa 0,0 l/m 1,4 km/h (1 Bft) N 360 15,2 C 17,6 C
03.08.2012 06:56 17,6 C 87 % 1015,5 hPa 0,0 l/m 5,8 km/h (2 Bft) N 360 15,4 C 17,6 C
03.08.2012 07:01 17,6 C 87 % 1015,7 hPa 0,0 l/m 0,0 km/h (0 Bft) N 360 15,4 C 17,6 C
03.08.2012 07:06 17,7 C 87 % 1015,6 hPa 0,0 l/m 2,9 km/h (1 Bft) N 360 15,5 C 17,7 C
03.08.2012 07:11 17,8 C 87 % 1015,8 hPa 0,0 l/m 0,0 km/h (0 Bft) NO 45 15,6 C 17,8 C
03.08.2012 07:16 17,8 C 86 % 1016,1 hPa 0,0 l/m 2,5 km/h (1 Bft) NO 45 15,4 C 17,8 C
03.08.2012 07:21 17,9 C 86 % 1016,3 hPa 0,0 l/m 2,2 km/h (1 Bft) S 180 15,5 C 17,9 C
03.08.2012 07:26 17,9 C 86 % 1016,4 hPa 0,0 l/m 1,1 km/h (1 Bft) S 180 15,5 C 17,9 C
03.08.2012 07:31 18,1 C 87 % 1016,3 hPa 0,0 l/m 2,2 km/h (1 Bft) S 180 15,9 C 18,1 C
03.08.2012 07:36 18,2 C 86 % 1016,3 hPa 0,0 l/m 1,4 km/h (1 Bft) S 180 15,8 C 18,2 C
03.08.2012 07:41 18,3 C 86 % 1016,4 hPa 0,0 l/m 0,0 km/h (0 Bft) S-SO 157 15,9 C 18,3 C
03.08.2012 07:46 18,3 C 86 % 1016,5 hPa 0,0 l/m 1,4 km/h (1 Bft) S 180 15,9 C 18,3 C
03.08.2012 07:51 18,3 C 86 % 1016,6 hPa 0,0 l/m 0,0 km/h (0 Bft) S 180 15,9 C 18,3 C
03.08.2012 07:56 18,3 C 86 % 1016,4 hPa 0,0 l/m 0,0 km/h (0 Bft) S 180 15,9 C 18,3 C
03.08.2012 08:01 18,4 C 85 % 1016,5 hPa 0,0 l/m 0,0 km/h (0 Bft) S 180 15,8 C 18,4 C
03.08.2012 08:06 18,4 C 85 % 1016,6 hPa 0,0 l/m 1,4 km/h (1 Bft) S 180 15,8 C 18,4 C
03.08.2012 08:11 18,4 C 85 % 1016,5 hPa 0,0 l/m 0,0 km/h (0 Bft) S 180 15,8 C 18,4 C
03.08.2012 08:16 18,6 C 85 % 1016,4 hPa 0,0 l/m 0,0 km/h (0 Bft) S-SW 202 16,0 C 18,6 C
03.08.2012 08:21 18,8 C 85 % 1016,6 hPa 0,0 l/m 6,1 km/h (2 Bft) SW 225 16,2 C 18,8 C
03.08.2012 08:26 18,9 C 85 % 1016,7 hPa 0,0 l/m 0,0 km/h (0 Bft) SW 225 16,3 C 18,9 C
03.08.2012 08:31 19,1 C 84 % 1016,7 hPa 0,0 l/m 0,0 km/h (0 Bft) SW 225 16,3 C 19,1 C
03.08.2012 08:36 19,1 C 84 % 1016,7 hPa 0,0 l/m 0,0 km/h (0 Bft) SW 225 16,3 C 19,1 C
03.08.2012 08:41 19,2 C 84 % 1016,7 hPa 0,0 l/m 0,0 km/h (0 Bft) SW 225 16,4 C 19,2 C
03.08.2012 08:46 19,2 C 84 % 1016,7 hPa 0,0 l/m 0,0 km/h (0 Bft) SW 225 16,4 C 19,2 C
03.08.2012 08:51 19,3 C 84 % 1016,8 hPa 0,0 l/m 0,0 km/h (0 Bft) SW 225 16,5 C 19,3 C
03.08.2012 08:56 19,3 C 83 % 1016,8 hPa 0,0 l/m 1,4 km/h (1 Bft) SW 225 16,3 C 19,3 C
03.08.2012 09:01 19,3 C 83 % 1016,9 hPa 0,0 l/m 3,2 km/h (1 Bft) W-SW 247 16,3 C 19,3 C
03.08.2012 09:06 19,3 C 83 % 1016,8 hPa 0,0 l/m 0,0 km/h (0 Bft) W 270 16,3 C 19,3 C
03.08.2012 09:11 19,3 C 83 % 1016,8 hPa 0,0 l/m 0,0 km/h (0 Bft) W-SW 247 16,3 C 19,3 C
03.08.2012 09:16 19,3 C 83 % 1016,9 hPa 0,0 l/m 1,8 km/h (1 Bft) W-SW 247 16,3 C 19,3 C
03.08.2012 09:21 19,3 C 83 % 1017,0 hPa 0,0 l/m 0,0 km/h (0 Bft) W 270 16,3 C 19,3 C
03.08.2012 09:26 19,3 C 83 % 1016,8 hPa 0,0 l/m 0,0 km/h (0 Bft) W 270 16,3 C 19,3 C
03.08.2012 09:31 19,3 C 83 % 1016,9 hPa 0,0 l/m 0,0 km/h (0 Bft) W 270 16,3 C 19,3 C
03.08.2012 09:36 19,3 C 83 % 1017,0 hPa 0,0 l/m 1,8 km/h (1 Bft) W 270 16,3 C 19,3 C
03.08.2012 09:41 19,4 C 83 % 1017,0 hPa 0,0 l/m 0,0 km/h (0 Bft) W 270 16,4 C 19,4 C
03.08.2012 09:46 19,5 C 83 % 1017,0 hPa 0,0 l/m 0,0 km/h (0 Bft) W 270 16,5 C 19,5 C
03.08.2012 09:51 19,6 C 82 % 1016,9 hPa 0,0 l/m 0,0 km/h (0 Bft) N-NO 22 16,4 C 19,6 C
03.08.2012 09:56 19,6 C 82 % 1016,8 hPa 0,0 l/m 1,4 km/h (1 Bft) NW 315 16,4 C 19,6 C
03.08.2012 10:01 19,8 C 81 % 1016,8 hPa 0,0 l/m 1,4 km/h (1 Bft) N-NO 22 16,4 C 19,8 C
03.08.2012 10:06 19,8 C 80 % 1016,7 hPa 0,0 l/m 2,2 km/h (1 Bft) N-NO 22 16,2 C 19,8 C
03.08.2012 10:11 19,8 C 80 % 1016,8 hPa 0,0 l/m 0,0 km/h (0 Bft) N-NO 22 16,2 C 19,8 C
03.08.2012 10:16 19,9 C 80 % 1016,7 hPa 0,0 l/m 1,4 km/h (1 Bft) N-NO 22 16,3 C 19,9 C
03.08.2012 10:21 20,2 C 79 % 1016,8 hPa 0,0 l/m 2,2 km/h (1 Bft) N 360 16,4 C 20,2 C
03.08.2012 10:26 20,4 C 78 % 1016,8 hPa 0,0 l/m 1,1 km/h (1 Bft) NW 315 16,4 C 20,4 C
03.08.2012 10:31 20,6 C 77 % 1016,8 hPa 0,0 l/m 0,0 km/h (0 Bft) N 360 16,4 C 20,6 C
03.08.2012 10:36 20,8 C 77 % 1016,9 hPa 0,0 l/m 1,4 km/h (1 Bft) NO 45 16,6 C 20,8 C
03.08.2012 10:41 21,0 C 76 % 1016,9 hPa 0,0 l/m 4,0 km/h (1 Bft) N-NW 337 16,6 C 21,0 C
03.08.2012 10:46 21,2 C 75 % 1016,8 hPa 0,0 l/m 2,9 km/h (1 Bft) N 360 16,6 C 21,2 C
03.08.2012 10:51 21,3 C 74 % 1016,9 hPa 0,0 l/m 2,2 km/h (1 Bft) N 360 16,5 C 21,3 C
03.08.2012 10:56 21,4 C 73 % 1017,0 hPa 0,0 l/m 0,0 km/h (0 Bft) N 360 16,4 C 21,4 C
03.08.2012 11:01 21,8 C 73 % 1017,0 hPa 0,0 l/m 1,8 km/h (1 Bft) NW 315 16,7 C 21,8 C
03.08.2012 11:06 22,0 C 72 % 1017,1 hPa 0,0 l/m 2,9 km/h (1 Bft) W-SW 247 16,7 C 22,0 C
03.08.2012 11:11 22,4 C 71 % 1017,0 hPa 0,0 l/m 0,0 km/h (0 Bft) W-SW 247 16,9 C 22,4 C
03.08.2012 11:16 22,6 C 69 % 1016,9 hPa 0,0 l/m 0,0 km/h (0 Bft) W-SW 247 16,6 C 22,6 C
03.08.2012 11:21 22,6 C 67 % 1016,9 hPa 0,0 l/m 0,0 km/h (0 Bft) S-SW 202 16,2 C 22,6 C
03.08.2012 11:26 22,6 C 67 % 1016,9 hPa 0,0 l/m 2,2 km/h (1 Bft) W 270 16,2 C 22,6 C
03.08.2012 11:31 22,6 C 66 % 1016,8 hPa 0,0 l/m 1,4 km/h (1 Bft) N 360 15,9 C 22,6 C
03.08.2012 11:36 22,6 C 65 % 1016,9 hPa 0,0 l/m 2,5 km/h (1 Bft) N 360 15,7 C 22,6 C
03.08.2012 11:41 22,8 C 63 % 1016,9 hPa 0,0 l/m 0,0 km/h (0 Bft) N 360 15,4 C 22,8 C
03.08.2012 11:46 23,1 C 61 % 1017,0 hPa 0,0 l/m 0,0 km/h (0 Bft) NW 315 15,2 C 23,1 C
03.08.2012 11:51 23,4 C 60 % 1017,2 hPa 0,0 l/m 2,5 km/h (1 Bft) NW 315 15,2 C 23,4 C
03.08.2012 11:56 23,5 C 58 % 1017,2 hPa 0,0 l/m 4,0 km/h (1 Bft) W-SW 247 14,7 C 23,5 C
03.08.2012 12:01 23,8 C 59 % 1017,1 hPa 0,0 l/m 1,4 km/h (1 Bft) S-SW 202 15,3 C 23,8 C
03.08.2012 12:06 23,9 C 58 % 1017,2 hPa 0,0 l/m 0,0 km/h (0 Bft) W 270 15,1 C 23,9 C
03.08.2012 12:11 23,8 C 55 % 1017,1 hPa 0,0 l/m 1,4 km/h (1 Bft) N 360 14,2 C 23,8 C
03.08.2012 12:16 23,6 C 56 % 1017,1 hPa 0,0 l/m 3,6 km/h (1 Bft) N 360 14,3 C 23,6 C
03.08.2012 12:21 23,5 C 55 % 1017,1 hPa 0,0 l/m 2,5 km/h (1 Bft) NO 45 13,9 C 23,5 C
03.08.2012 12:26 23,6 C 55 % 1017,1 hPa 0,0 l/m 0,0 km/h (0 Bft) NO 45 14,0 C 23,6 C
03.08.2012 12:31 23,8 C 55 % 1017,2 hPa 0,0 l/m 4,0 km/h (1 Bft) S 180 14,2 C 23,8 C
03.08.2012 12:36 24,1 C 56 % 1017,1 hPa 0,0 l/m 0,0 km/h (0 Bft) W-SW 247 14,8 C 24,1 C
03.08.2012 12:41 24,3 C 56 % 1017,2 hPa 0,0 l/m 0,0 km/h (0 Bft) W 270 14,9 C 24,3 C
03.08.2012 12:46 24,4 C 56 % 1017,0 hPa 0,0 l/m 2,5 km/h (1 Bft) S 180 15,0 C 24,4 C
03.08.2012 12:51 24,4 C 55 % 1017,0 hPa 0,0 l/m 5,0 km/h (1 Bft) SW 225 14,8 C 24,4 C
03.08.2012 12:56 24,8 C 54 % 1017,0 hPa 0,0 l/m 3,2 km/h (1 Bft) SW 225 14,8 C 24,8 C
03.08.2012 13:01 25,1 C 53 % 1016,9 hPa 0,0 l/m 0,0 km/h (0 Bft) SO 135 14,8 C 25,1 C
03.08.2012 13:06 25,3 C 52 % 1016,9 hPa 0,0 l/m 2,2 km/h (1 Bft) W-SW 247 14,7 C 25,3 C
03.08.2012 13:11 25,4 C 52 % 1017,0 hPa 0,0 l/m 0,0 km/h (0 Bft) W-NW 292 14,8 C 25,4 C
03.08.2012 13:16 25,6 C 52 % 1016,8 hPa 0,0 l/m 2,9 km/h (1 Bft) S 180 15,0 C 25,6 C
03.08.2012 13:21 25,9 C 51 % 1016,8 hPa 0,0 l/m 3,2 km/h (1 Bft) SW 225 15,0 C 25,9 C
03.08.2012 13:26 25,9 C 50 % 1016,9 hPa 0,0 l/m 0,0 km/h (0 Bft) W-SW 247 14,7 C 25,9 C
03.08.2012 13:31 25,9 C 49 % 1016,9 hPa 0,0 l/m 0,0 km/h (0 Bft) W-NW 292 14,4 C 25,9 C
03.08.2012 13:36 25,8 C 49 % 1016,9 hPa 0,0 l/m 2,5 km/h (1 Bft) SO 135 14,3 C 25,8 C
03.08.2012 13:41 25,4 C 50 % 1016,8 hPa 0,0 l/m 1,4 km/h (1 Bft) S 180 14,2 C 25,4 C
03.08.2012 13:46 25,2 C 51 % 1016,8 hPa 0,0 l/m 2,5 km/h (1 Bft) S-SW 202 14,3 C 25,2 C
03.08.2012 13:51 25,0 C 52 % 1016,7 hPa 0,0 l/m 2,5 km/h (1 Bft) S-SO 157 14,4 C 25,0 C
03.08.2012 13:56 24,9 C 52 % 1016,7 hPa 0,0 l/m 3,2 km/h (1 Bft) SW 225 14,4 C 24,9 C
03.08.2012 14:01 24,7 C 52 % 1016,7 hPa 0,0 l/m 0,0 km/h (0 Bft) W-SW 247 14,2 C 24,7 C
03.08.2012 14:06 24,5 C 52 % 1016,7 hPa 0,0 l/m 1,1 km/h (1 Bft) W-SW 247 14,0 C 24,5 C
03.08.2012 14:11 24,4 C 51 % 1016,8 hPa 0,0 l/m 0,0 km/h (0 Bft) W-SW 247 13,6 C 24,4 C
03.08.2012 14:16 24,2 C 52 % 1016,7 hPa 0,0 l/m 1,4 km/h (1 Bft) W-SW 247 13,7 C 24,2 C
03.08.2012 14:21 24,2 C 52 % 1016,7 hPa 0,0 l/m 3,6 km/h (1 Bft) W-SW 247 13,7 C 24,2 C
03.08.2012 14:26 24,1 C 53 % 1016,7 hPa 0,0 l/m 3,6 km/h (1 Bft) W 270 13,9 C 24,1 C
03.08.2012 14:31 24,1 C 54 % 1016,6 hPa 0,0 l/m 1,1 km/h (1 Bft) SW 225 14,2 C 24,1 C
03.08.2012 14:36 24,1 C 54 % 1016,6 hPa 0,0 l/m 2,5 km/h (1 Bft) SW 225 14,2 C 24,1 C
03.08.2012 14:41 24,1 C 54 % 1016,5 hPa 0,0 l/m 4,0 km/h (1 Bft) SO 135 14,2 C 24,1 C
03.08.2012 14:46 24,1 C 54 % 1016,5 hPa 0,0 l/m 2,5 km/h (1 Bft) S-SW 202 14,2 C 24,1 C
03.08.2012 14:51 24,2 C 53 % 1016,3 hPa 0,0 l/m 0,0 km/h (0 Bft) S-SW 202 14,0 C 24,2 C
03.08.2012 14:56 24,3 C 53 % 1016,3 hPa 0,0 l/m 2,5 km/h (1 Bft) S-SO 157 14,1 C 24,3 C
03.08.2012 15:01 24,4 C 52 % 1016,2 hPa 0,0 l/m 0,0 km/h (0 Bft) S-SO 157 13,9 C 24,4 C
03.08.2012 15:06 24,6 C 52 % 1016,3 hPa 0,0 l/m 0,0 km/h (0 Bft) W-SW 247 14,1 C 24,6 C
03.08.2012 15:11 25,2 C 50 % 1016,2 hPa 0,0 l/m 0,0 km/h (0 Bft) S-SO 157 14,0 C 25,2 C
03.08.2012 15:16 25,9 C 49 % 1016,1 hPa 0,0 l/m 3,2 km/h (1 Bft) S-SW 202 14,4 C 25,9 C
03.08.2012 15:21 26,4 C 48 % 1015,9 hPa 0,0 l/m 9,4 km/h (2 Bft) W-SW 247 14,5 C 26,4 C
03.08.2012 15:26 26,8 C 47 % 1016,2 hPa 0,0 l/m 0,0 km/h (0 Bft) W 270 14,5 C 26,8 C
03.08.2012 15:31 26,8 C 46 % 1016,0 hPa 0,0 l/m 9,7 km/h (2 Bft) S-SW 202 14,2 C 26,8 C
03.08.2012 15:36 26,9 C 45 % 1016,1 hPa 0,0 l/m 6,5 km/h (2 Bft) SW 225 13,9 C 26,9 C
03.08.2012 15:41 26,9 C 45 % 1016,0 hPa 0,0 l/m 0,0 km/h (0 Bft) S-SW 202 13,9 C 26,9 C
03.08.2012 15:46 27,1 C 43 % 1016,0 hPa 0,0 l/m 3,6 km/h (1 Bft) SO 135 13,4 C 27,1 C
03.08.2012 15:51 27,3 C 42 % 1015,9 hPa 0,0 l/m 3,6 km/h (1 Bft) W 270 13,2 C 27,3 C
03.08.2012 15:56 27,3 C 42 % 1015,8 hPa 0,0 l/m 1,4 km/h (1 Bft) S-SW 202 13,2 C 27,3 C
03.08.2012 16:01 27,4 C 41 % 1015,8 hPa 0,0 l/m 10,4 km/h (2 Bft) W-SW 247 13,0 C 27,4 C
03.08.2012 16:06 27,4 C 41 % 1015,7 hPa 0,0 l/m 5,0 km/h (1 Bft) W-SW 247 13,0 C 27,4 C
03.08.2012 16:11 27,5 C 40 % 1015,7 hPa 0,0 l/m 1,8 km/h (1 Bft) SW 225 12,7 C 27,5 C
03.08.2012 16:16 27,4 C 40 % 1015,6 hPa 0,0 l/m 2,5 km/h (1 Bft) S-SO 157 12,6 C 27,4 C
03.08.2012 16:21 27,6 C 40 % 1015,7 hPa 0,0 l/m 7,9 km/h (2 Bft) S 180 12,8 C 27,6 C
03.08.2012 16:26 27,6 C 41 % 1015,8 hPa 0,0 l/m 1,4 km/h (1 Bft) SO 135 13,1 C 27,6 C
03.08.2012 16:31 27,4 C 42 % 1015,6 hPa 0,0 l/m 8,6 km/h (2 Bft) SO 135 13,3 C 27,4 C
03.08.2012 16:36 27,3 C 44 % 1015,5 hPa 0,0 l/m 7,6 km/h (2 Bft) S-SO 157 14,0 C 27,3 C
03.08.2012 16:41 26,8 C 45 % 1015,5 hPa 0,0 l/m 3,6 km/h (1 Bft) SO 135 13,9 C 26,8 C
03.08.2012 16:46 26,4 C 46 % 1015,4 hPa 0,0 l/m 7,2 km/h (2 Bft) SW 225 13,8 C 26,4 C
03.08.2012 16:51 25,9 C 47 % 1015,5 hPa 0,0 l/m 9,0 km/h (2 Bft) SO 135 13,7 C 25,9 C
03.08.2012 16:56 26,1 C 48 % 1015,3 hPa 0,0 l/m 5,4 km/h (1 Bft) S-SO 157 14,2 C 26,1 C
03.08.2012 17:01 26,3 C 49 % 1015,4 hPa 0,0 l/m 4,7 km/h (1 Bft) O-SO 112 14,7 C 26,3 C
03.08.2012 17:06 26,5 C 47 % 1015,4 hPa 0,0 l/m 3,6 km/h (1 Bft) SO 135 14,3 C 26,5 C
03.08.2012 17:11 26,3 C 48 % 1015,3 hPa 0,0 l/m 9,0 km/h (2 Bft) O-NO 67 14,4 C 26,3 C
03.08.2012 17:16 26,1 C 49 % 1015,3 hPa 0,0 l/m 4,0 km/h (1 Bft) SO 135 14,5 C 26,1 C
03.08.2012 17:21 26,1 C 49 % 1015,3 hPa 0,0 l/m 4,0 km/h (1 Bft) S-SO 157 14,5 C 26,1 C
03.08.2012 17:26 26,3 C 49 % 1015,3 hPa 0,0 l/m 13,7 km/h (3 Bft) SO 135 14,7 C 26,3 C
03.08.2012 17:31 26,3 C 47 % 1015,3 hPa 0,0 l/m 5,4 km/h (1 Bft) S-SO 157 14,1 C 26,3 C
03.08.2012 17:36 26,6 C 47 % 1015,2 hPa 0,0 l/m 4,7 km/h (1 Bft) SO 135 14,3 C 26,6 C
03.08.2012 17:41 26,8 C 45 % 1015,3 hPa 0,0 l/m 7,2 km/h (2 Bft) S-SW 202 13,9 C 26,8 C
03.08.2012 17:46 26,9 C 44 % 1015,2 hPa 0,0 l/m 4,3 km/h (1 Bft) S-SW 202 13,6 C 26,9 C
03.08.2012 17:51 27,1 C 43 % 1015,3 hPa 0,0 l/m 1,4 km/h (1 Bft) O-SO 112 13,4 C 27,1 C
03.08.2012 17:56 27,0 C 43 % 1015,3 hPa 0,0 l/m 5,8 km/h (2 Bft) S 180 13,3 C 27,0 C
03.08.2012 18:01 26,8 C 44 % 1015,3 hPa 0,0 l/m 6,5 km/h (2 Bft) S 180 13,5 C 26,8 C
03.08.2012 18:06 26,5 C 46 % 1015,4 hPa 0,0 l/m 11,2 km/h (2 Bft) S-SW 202 13,9 C 26,5 C
03.08.2012 18:11 26,1 C 47 % 1015,4 hPa 0,0 l/m 6,1 km/h (2 Bft) S-SW 202 13,9 C 26,1 C
03.08.2012 18:16 25,8 C 48 % 1015,4 hPa 0,0 l/m 5,8 km/h (2 Bft) S-SW 202 13,9 C 25,8 C
03.08.2012 18:21 25,4 C 50 % 1015,5 hPa 0,0 l/m 4,3 km/h (1 Bft) W-SW 247 14,2 C 25,4 C
03.08.2012 18:26 25,5 C 50 % 1015,3 hPa 0,0 l/m 6,1 km/h (2 Bft) S-SW 202 14,3 C 25,5 C
03.08.2012 18:31 25,8 C 50 % 1015,1 hPa 0,0 l/m 14,8 km/h (3 Bft) S 180 14,6 C 25,8 C
03.08.2012 18:36 25,8 C 49 % 1015,2 hPa 0,0 l/m 12,2 km/h (2 Bft) S-SW 202 14,3 C 25,8 C
03.08.2012 18:41 25,6 C 49 % 1015,2 hPa 0,0 l/m 1,4 km/h (1 Bft) SW 225 14,1 C 25,6 C
03.08.2012 18:46 25,5 C 50 % 1015,1 hPa 0,0 l/m 2,9 km/h (1 Bft) S-SO 157 14,3 C 25,5 C
03.08.2012 18:51 25,3 C 49 % 1015,2 hPa 0,0 l/m 3,6 km/h (1 Bft) S 180 13,8 C 25,3 C
03.08.2012 18:56 25,1 C 50 % 1015,2 hPa 0,0 l/m 11,2 km/h (2 Bft) S-SO 157 13,9 C 25,1 C
03.08.2012 19:01 24,8 C 50 % 1015,1 hPa 0,0 l/m 5,0 km/h (1 Bft) S-SW 202 13,7 C 24,8 C
03.08.2012 19:06 24,5 C 49 % 1015,0 hPa 0,0 l/m 6,5 km/h (2 Bft) S 180 13,1 C 24,5 C
03.08.2012 19:11 24,3 C 50 % 1014,9 hPa 0,0 l/m 4,7 km/h (1 Bft) SW 225 13,2 C 24,3 C
03.08.2012 19:16 24,1 C 50 % 1015,0 hPa 0,0 l/m 2,5 km/h (1 Bft) S-SO 157 13,0 C 24,1 C
03.08.2012 19:21 23,9 C 51 % 1015,0 hPa 0,0 l/m 3,6 km/h (1 Bft) S-SO 157 13,1 C 23,9 C
03.08.2012 19:26 23,9 C 52 % 1015,0 hPa 0,0 l/m 5,0 km/h (1 Bft) S-SW 202 13,4 C 23,9 C
03.08.2012 19:31 23,8 C 53 % 1015,2 hPa 0,0 l/m 5,8 km/h (2 Bft) SW 225 13,6 C 23,8 C
03.08.2012 19:36 23,8 C 54 % 1015,3 hPa 0,0 l/m 2,9 km/h (1 Bft) S-SO 157 13,9 C 23,8 C
03.08.2012 19:41 23,8 C 55 % 1015,3 hPa 0,0 l/m 2,5 km/h (1 Bft) S-SO 157 14,2 C 23,8 C
03.08.2012 19:46 23,6 C 55 % 1015,1 hPa 0,0 l/m 6,5 km/h (2 Bft) SW 225 14,0 C 23,6 C
03.08.2012 19:51 23,6 C 56 % 1015,1 hPa 0,0 l/m 6,5 km/h (2 Bft) S 180 14,3 C 23,6 C
03.08.2012 19:56 23,5 C 56 % 1015,0 hPa 0,0 l/m 5,0 km/h (1 Bft) S-SW 202 14,2 C 23,5 C
03.08.2012 20:01 23,3 C 57 % 1015,0 hPa 0,0 l/m 3,6 km/h (1 Bft) S-SW 202 14,3 C 23,3 C
03.08.2012 20:06 23,1 C 57 % 1015,1 hPa 0,0 l/m 7,9 km/h (2 Bft) S-SW 202 14,1 C 23,1 C
03.08.2012 20:11 22,8 C 58 % 1015,1 hPa 0,0 l/m 7,9 km/h (2 Bft) S 180 14,1 C 22,8 C
03.08.2012 20:16 22,6 C 59 % 1015,2 hPa 0,0 l/m 3,6 km/h (1 Bft) S 180 14,2 C 22,6 C
03.08.2012 20:21 22,4 C 60 % 1015,3 hPa 0,0 l/m 2,9 km/h (1 Bft) S-SO 157 14,2 C 22,4 C
03.08.2012 20:26 22,3 C 60 % 1015,3 hPa 0,0 l/m 0,0 km/h (0 Bft) S 180 14,2 C 22,3 C
03.08.2012 20:31 22,1 C 61 % 1015,3 hPa 0,0 l/m 0,0 km/h (0 Bft) S 180 14,2 C 22,1 C
03.08.2012 20:36 21,9 C 61 % 1015,5 hPa 0,0 l/m 0,0 km/h (0 Bft) S 180 14,0 C 21,9 C
03.08.2012 20:41 21,8 C 62 % 1015,5 hPa 0,0 l/m 2,2 km/h (1 Bft) S 180 14,2 C 21,8 C
03.08.2012 20:46 21,7 C 62 % 1015,6 hPa 0,0 l/m 2,2 km/h (1 Bft) S 180 14,1 C 21,7 C
03.08.2012 20:51 21,6 C 62 % 1015,7 hPa 0,0 l/m 1,8 km/h (1 Bft) S 180 14,0 C 21,6 C
03.08.2012 20:56 21,5 C 63 % 1015,7 hPa 0,0 l/m 0,0 km/h (0 Bft) S 180 14,2 C 21,5 C
03.08.2012 21:01 21,4 C 63 % 1015,8 hPa 0,0 l/m 0,0 km/h (0 Bft) S 180 14,1 C 21,4 C
03.08.2012 21:06 21,3 C 63 % 1015,8 hPa 0,0 l/m 2,5 km/h (1 Bft) S 180 14,0 C 21,3 C
03.08.2012 21:11 21,3 C 64 % 1015,9 hPa 0,0 l/m 0,0 km/h (0 Bft) S 180 14,2 C 21,3 C
03.08.2012 21:16 21,2 C 64 % 1016,0 hPa 0,0 l/m 0,0 km/h (0 Bft) S 180 14,1 C 21,2 C
03.08.2012 21:21 21,1 C 64 % 1016,0 hPa 0,0 l/m 0,0 km/h (0 Bft) S 180 14,0 C 21,1 C
03.08.2012 21:26 21,0 C 65 % 1016,1 hPa 0,0 l/m 0,0 km/h (0 Bft) S 180 14,2 C 21,0 C
03.08.2012 21:31 21,0 C 65 % 1016,1 hPa 0,0 l/m 0,0 km/h (0 Bft) S 180 14,2 C 21,0 C
03.08.2012 21:36 20,9 C 66 % 1016,0 hPa 0,0 l/m 0,0 km/h (0 Bft) S 180 14,3 C 20,9 C
03.08.2012 21:41 20,9 C 66 % 1016,1 hPa 0,0 l/m 1,1 km/h (1 Bft) S 180 14,3 C 20,9 C
03.08.2012 21:46 20,6 C 68 % 1016,4 hPa 0,0 l/m 6,5 km/h (2 Bft) NO 45 14,5 C 20,6 C
03.08.2012 21:51 20,1 C 69 % 1016,4 hPa 0,0 l/m 4,3 km/h (1 Bft) N-NO 22 14,2 C 20,1 C
03.08.2012 21:56 19,9 C 69 % 1016,4 hPa 0,0 l/m 12,6 km/h (3 Bft) N-NO 22 14,0 C 19,9 C
03.08.2012 22:01 19,6 C 69 % 1016,4 hPa 0,0 l/m 7,2 km/h (2 Bft) N 360 13,8 C 19,6 C
03.08.2012 22:06 19,4 C 70 % 1016,4 hPa 0,0 l/m 5,0 km/h (1 Bft) N-NO 22 13,8 C 19,4 C
03.08.2012 22:11 19,3 C 70 % 1016,4 hPa 0,0 l/m 6,5 km/h (2 Bft) N-NO 22 13,7 C 19,3 C
03.08.2012 22:16 19,3 C 69 % 1016,3 hPa 0,0 l/m 2,9 km/h (1 Bft) N-NW 337 13,5 C 19,3 C
03.08.2012 22:21 19,2 C 70 % 1016,3 hPa 0,0 l/m 2,2 km/h (1 Bft) N-NO 22 13,6 C 19,2 C
03.08.2012 22:26 19,2 C 70 % 1016,3 hPa 0,0 l/m 0,0 km/h (0 Bft) O-NO 67 13,6 C 19,2 C
03.08.2012 22:31 19,1 C 70 % 1016,4 hPa 0,0 l/m 0,0 km/h (0 Bft) N-NW 337 13,5 C 19,1 C
03.08.2012 22:36 19,1 C 69 % 1016,3 hPa 0,0 l/m 2,2 km/h (1 Bft) N-NO 22 13,3 C 19,1 C
03.08.2012 22:41 19,1 C 69 % 1016,2 hPa 0,0 l/m 3,2 km/h (1 Bft) N 360 13,3 C 19,1 C
03.08.2012 22:46 19,1 C 69 % 1016,3 hPa 0,0 l/m 1,4 km/h (1 Bft) NO 45 13,3 C 19,1 C
03.08.2012 22:51 19,1 C 69 % 1016,4 hPa 0,0 l/m 4,0 km/h (1 Bft) N 360 13,3 C 19,1 C
03.08.2012 22:56 19,1 C 69 % 1016,2 hPa 0,0 l/m 2,9 km/h (1 Bft) O-NO 67 13,3 C 19,1 C
03.08.2012 23:01 19,1 C 69 % 1016,3 hPa 0,0 l/m 0,0 km/h (0 Bft) O-NO 67 13,3 C 19,1 C
03.08.2012 23:06 19,1 C 70 % 1016,3 hPa 0,0 l/m 1,4 km/h (1 Bft) S-SO 157 13,5 C 19,1 C
03.08.2012 23:11 19,1 C 70 % 1016,2 hPa 0,0 l/m 2,9 km/h (1 Bft) SO 135 13,5 C 19,1 C
03.08.2012 23:16 19,0 C 71 % 1016,3 hPa 0,0 l/m 3,2 km/h (1 Bft) SO 135 13,6 C 19,0 C
03.08.2012 23:21 19,0 C 71 % 1016,3 hPa 0,0 l/m 2,5 km/h (1 Bft) S-SO 157 13,6 C 19,0 C
03.08.2012 23:26 18,9 C 71 % 1016,1 hPa 0,0 l/m 3,6 km/h (1 Bft) SO 135 13,5 C 18,9 C
03.08.2012 23:31 18,9 C 71 % 1016,2 hPa 0,0 l/m 2,5 km/h (1 Bft) SO 135 13,5 C 18,9 C
03.08.2012 23:36 18,9 C 72 % 1015,9 hPa 0,0 l/m 4,0 km/h (1 Bft) SO 135 13,7 C 18,9 C
03.08.2012 23:41 18,8 C 72 % 1016,0 hPa 0,0 l/m 4,7 km/h (1 Bft) O-SO 112 13,6 C 18,8 C
03.08.2012 23:46 18,8 C 72 % 1016,0 hPa 0,0 l/m 1,8 km/h (1 Bft) O-SO 112 13,6 C 18,8 C
03.08.2012 23:51 18,8 C 72 % 1016,0 hPa 0,0 l/m 0,0 km/h (0 Bft) O-SO 112 13,6 C 18,8 C
03.08.2012 23:56 18,8 C 72 % 1016,1 hPa 0,0 l/m 0,0 km/h (0 Bft) O-SO 112 13,6 C 18,8 C
_ Min-Zeit 05:41 16:11 00:01 - 00:01 - - 16:16 05:41
Minimum _ 17,6 C 40 % 1014,8 hPa - 0,0 km/h (0 Bft) - - 12,6 C 17,6 C
_ Max-Zeit 16:21 06:56 11:51 00:01 18:31 - - 11:11 16:21
Maximum _ 27,6 C 87 % 1017,2 hPa 0,0 l/m 14,8 km/h
S (3 Bft)
- - 16,9 C 27,6 C
Durchschnitt _ 21,4 C 68 % 1016,0 hPa #0,0 l/m 2,3 km/h (1 Bft) S - 14,7 C 21,4 C
(c) by David Heller